Time;durP1;ratioP1;P1;durP2;ratioP2;P2;SDS_P1;SDS_P2;PMS_P1;PMS_P2;Temp;Humidity;BMP_temperature;BMP_pressure;BME280_temperature;BME280_humidity;BME280_pressure;Samples;Min_cycle;Max_cycle;Signal;HPM_P1;HPM_P2
2023/07/30 00:00:22;;;;;;;19.60;7.10;;;;;;;;;;5087320;28;20148;-80
2023/07/30 00:02:48;;;;;;;18.23;7.22;;;;;;;;;;5088353;28;20155;-80
2023/07/30 00:05:14;;;;;;;18.10;6.97;;;;;;;;;;5051374;28;20051;-81
2023/07/30 00:07:40;;;;;;;14.98;6.68;;;;;;;;;;5084462;28;20056;-80
2023/07/30 00:10:07;;;;;;;13.45;7.43;;;;;;;;;;5063729;28;20059;-80
2023/07/30 00:12:33;;;;;;;17.95;6.68;;;;;;;;;;5066092;28;20056;-81
2023/07/30 00:14:59;;;;;;;18.00;6.78;;;;;;;;;;5074748;28;20046;-81
2023/07/30 00:17:25;;;;;;;24.38;7.80;;;;;;;;;;5073461;28;20052;-81
2023/07/30 00:19:51;;;;;;;18.23;6.97;;;;;;;;;;5082029;28;20120;-80
2023/07/30 00:22:17;;;;;;;18.98;6.90;;;;;;;;;;5099714;28;20089;-81
2023/07/30 00:24:43;;;;;;;29.08;8.82;;;;;;;;;;5076186;28;20058;-81
2023/07/30 00:27:09;;;;;;;22.77;7.80;;;;;;;;;;5095937;28;20071;-81
2023/07/30 00:29:35;;;;;;;29.73;7.07;;;;;;;;;;5061971;28;20099;-80
2023/07/30 00:32:01;;;;;;;21.20;7.78;;;;;;;;;;5076964;28;20094;-80
2023/07/30 00:34:27;;;;;;;27.60;7.50;;;;;;;;;;5078785;28;20121;-80
2023/07/30 00:36:53;;;;;;;17.65;7.00;;;;;;;;;;5078084;28;20135;-81
2023/07/30 00:39:19;;;;;;;19.20;7.50;;;;;;;;;;5097752;28;20403;-81
2023/07/30 00:41:45;;;;;;;24.25;7.57;;;;;;;;;;5077966;28;20048;-79
2023/07/30 00:44:11;;;;;;;26.15;7.15;;;;;;;;;;5075857;28;20406;-80
2023/07/30 00:46:38;;;;;;;18.77;7.38;;;;;;;;;;5074287;28;20051;-80
2023/07/30 00:49:04;;;;;;;21.65;7.93;;;;;;;;;;5094251;28;20860;-80
2023/07/30 00:51:31;;;;;;;23.23;7.85;;;;;;;;;;5091278;28;20048;-80
2023/07/30 00:53:57;;;;;;;26.98;8.60;;;;;;;;;;5072192;28;20047;-81
2023/07/30 00:56:23;;;;;;;27.80;8.40;;;;;;;;;;5073042;28;20135;-80
2023/07/30 00:58:49;;;;;;;18.95;8.02;;;;;;;;;;5072412;28;20052;-80
2023/07/30 01:01:16;;;;;;;21.83;8.48;;;;;;;;;;5072178;28;20128;-80
2023/07/30 01:03:42;;;;;;;24.55;7.60;;;;;;;;;;5071189;28;20059;-81
2023/07/30 01:06:08;;;;;;;27.50;8.15;;;;;;;;;;5069016;28;20793;-80
2023/07/30 01:08:34;;;;;;;26.48;7.88;;;;;;;;;;5066696;28;20091;-80
2023/07/30 01:11:01;;;;;;;21.65;7.13;;;;;;;;;;5060103;28;20056;-80
2023/07/30 01:13:29;;;;;;;27.02;8.07;;;;;;;;;;5057516;27;20070;-80
2023/07/30 01:15:55;;;;;;;27.98;8.48;;;;;;;;;;5070260;28;20076;-80
2023/07/30 01:18:21;;;;;;;21.85;8.40;;;;;;;;;;5074901;28;20051;-80
2023/07/30 01:20:47;;;;;;;25.35;7.40;;;;;;;;;;5088134;28;20055;-80
2023/07/30 01:23:13;;;;;;;24.73;7.38;;;;;;;;;;5074436;28;20070;-80
2023/07/30 01:25:40;;;;;;;24.40;8.00;;;;;;;;;;5074985;28;20132;-80
2023/07/30 01:28:07;;;;;;;27.10;8.13;;;;;;;;;;5072561;28;20047;-80
2023/07/30 01:30:42;;;;;;;19.98;7.85;;;;;;;;;;5070272;28;20113;-81
2023/07/30 01:33:10;;;;;;;25.23;8.32;;;;;;;;;;5072348;28;20052;-81
2023/07/30 01:35:37;;;;;;;30.40;9.23;;;;;;;;;;5068601;28;20051;-80
2023/07/30 01:38:05;;;;;;;24.48;8.18;;;;;;;;;;5071025;28;20046;-80
2023/07/30 01:40:32;;;;;;;23.83;8.25;;;;;;;;;;5070796;28;20055;-80
2023/07/30 01:42:58;;;;;;;21.08;7.65;;;;;;;;;;5072192;28;20150;-80
2023/07/30 01:45:24;;;;;;;23.50;8.30;;;;;;;;;;5087140;27;20040;-80
2023/07/30 01:47:50;;;;;;;23.02;7.43;;;;;;;;;;5069439;28;20050;-80
2023/07/30 01:50:16;;;;;;;33.20;8.70;;;;;;;;;;5070194;28;21873;-81
2023/07/30 01:52:42;;;;;;;24.75;7.60;;;;;;;;;;5088882;28;20054;-80
2023/07/30 01:55:08;;;;;;;27.83;7.85;;;;;;;;;;5088154;28;20810;-80
2023/07/30 01:57:34;;;;;;;28.17;8.10;;;;;;;;;;5092308;28;22065;-80
2023/07/30 02:00:00;;;;;;;30.10;9.23;;;;;;;;;;5090289;28;20044;-80
2023/07/30 02:02:26;;;;;;;21.52;7.10;;;;;;;;;;5089977;28;20039;-80
2023/07/30 02:04:52;;;;;;;27.17;7.70;;;;;;;;;;5070520;28;20048;-80
2023/07/30 02:07:19;;;;;;;24.27;8.60;;;;;;;;;;5071304;28;20112;-80
2023/07/30 02:09:45;;;;;;;15.52;7.68;;;;;;;;;;5070563;28;20044;-80
2023/07/30 02:12:11;;;;;;;26.15;8.18;;;;;;;;;;5090271;28;20077;-80
2023/07/30 02:14:37;;;;;;;26.98;7.88;;;;;;;;;;5074915;28;20051;-80
2023/07/30 02:17:03;;;;;;;21.00;7.10;;;;;;;;;;5076214;28;20043;-80
2023/07/30 02:19:29;;;;;;;31.48;8.23;;;;;;;;;;5094416;28;20112;-80
2023/07/30 02:21:55;;;;;;;22.17;7.93;;;;;;;;;;5083580;28;20051;-80
2023/07/30 02:24:21;;;;;;;23.08;6.88;;;;;;;;;;5075079;28;20047;-81
2023/07/30 02:26:48;;;;;;;18.25;7.50;;;;;;;;;;5072165;28;20055;-81
2023/07/30 02:29:14;;;;;;;22.05;7.35;;;;;;;;;;5072410;28;20066;-80
2023/07/30 02:31:40;;;;;;;20.60;6.85;;;;;;;;;;5055841;28;20131;-80
2023/07/30 02:34:07;;;;;;;30.02;8.05;;;;;;;;;;5066600;28;20147;-80
2023/07/30 02:36:33;;;;;;;24.70;7.30;;;;;;;;;;5081472;27;20492;-80
2023/07/30 02:38:59;;;;;;;31.98;8.55;;;;;;;;;;5081576;28;20040;-80
2023/07/30 02:41:25;;;;;;;28.00;8.80;;;;;;;;;;5063138;28;20047;-80
2023/07/30 02:43:51;;;;;;;24.42;7.30;;;;;;;;;;5079538;28;20054;-81
2023/07/30 02:46:18;;;;;;;20.73;7.78;;;;;;;;;;5058248;28;20050;-80
2023/07/30 02:48:44;;;;;;;21.23;7.00;;;;;;;;;;5080059;28;20043;-80
2023/07/30 02:51:10;;;;;;;29.65;7.95;;;;;;;;;;5062375;28;20051;-81
2023/07/30 02:53:36;;;;;;;25.48;6.90;;;;;;;;;;5043366;28;20051;-80
2023/07/30 02:56:02;;;;;;;28.05;7.82;;;;;;;;;;5082026;28;20075;-81
2023/07/30 02:58:28;;;;;;;27.90;7.32;;;;;;;;;;5061068;28;20105;-80
2023/07/30 03:00:54;;;;;;;25.83;7.03;;;;;;;;;;5063003;28;20552;-81
2023/07/30 03:03:20;;;;;;;24.70;7.05;;;;;;;;;;5081475;27;20126;-80
2023/07/30 03:05:46;;;;;;;30.02;8.15;;;;;;;;;;5045655;28;20059;-80
2023/07/30 03:08:13;;;;;;;30.42;7.88;;;;;;;;;;5060615;28;20051;-79
2023/07/30 03:10:39;;;;;;;24.88;6.72;;;;;;;;;;5063594;28;20060;-80
2023/07/30 03:13:05;;;;;;;26.55;7.45;;;;;;;;;;5063783;28;20051;-80
2023/07/30 03:15:31;;;;;;;23.02;7.00;;;;;;;;;;5078866;28;20095;-80
2023/07/30 03:17:57;;;;;;;34.38;7.22;;;;;;;;;;5063101;28;20761;-80
2023/07/30 03:20:23;;;;;;;24.67;6.93;;;;;;;;;;5063022;28;20054;-80
2023/07/30 03:22:49;;;;;;;25.00;6.80;;;;;;;;;;5062939;28;20142;-80
2023/07/30 03:25:15;;;;;;;32.03;7.80;;;;;;;;;;5062175;28;20058;-80
2023/07/30 03:27:41;;;;;;;27.15;6.32;;;;;;;;;;5081223;28;20779;-80
2023/07/30 03:30:09;;;;;;;27.13;7.30;;;;;;;;;;5063494;28;20052;-80
2023/07/30 03:32:35;;;;;;;29.88;7.25;;;;;;;;;;5060044;28;20092;-80
2023/07/30 03:35:01;;;;;;;27.58;7.75;;;;;;;;;;5062044;28;21734;-80
2023/07/30 03:37:27;;;;;;;23.85;6.45;;;;;;;;;;5080513;28;20043;-80
2023/07/30 03:39:53;;;;;;;26.67;6.57;;;;;;;;;;5062051;28;20051;-81
2023/07/30 03:42:19;;;;;;;17.85;6.13;;;;;;;;;;5062587;28;20047;-80
2023/07/30 03:44:45;;;;;;;22.70;6.63;;;;;;;;;;5062974;28;20054;-80
2023/07/30 03:47:11;;;;;;;14.50;5.53;;;;;;;;;;5059722;28;20147;-80
2023/07/30 03:49:37;;;;;;;28.00;7.03;;;;;;;;;;5081081;28;20071;-80
2023/07/30 03:52:04;;;;;;;18.92;6.03;;;;;;;;;;5080254;28;20056;-80
2023/07/30 03:54:30;;;;;;;29.67;7.63;;;;;;;;;;5061255;28;20047;-80
2023/07/30 03:56:56;;;;;;;24.58;6.32;;;;;;;;;;5063479;28;20598;-80
2023/07/30 03:59:22;;;;;;;34.72;6.32;;;;;;;;;;5060972;28;20075;-80
2023/07/30 04:01:48;;;;;;;23.63;6.13;;;;;;;;;;5062024;28;20141;-81
2023/07/30 04:04:14;;;;;;;17.27;5.82;;;;;;;;;;5064102;28;20134;-80
2023/07/30 04:06:40;;;;;;;27.90;5.95;;;;;;;;;;5082791;28;20048;-81
2023/07/30 04:09:07;;;;;;;21.55;6.43;;;;;;;;;;5047609;28;20051;-80
2023/07/30 04:11:34;;;;;;;25.83;6.82;;;;;;;;;;5049579;28;20208;-80
2023/07/30 04:14:00;;;;;;;26.35;6.50;;;;;;;;;;5064696;28;20167;-80
2023/07/30 04:16:26;;;;;;;29.33;6.43;;;;;;;;;;5065324;28;20054;-81
2023/07/30 04:18:52;;;;;;;25.08;6.03;;;;;;;;;;5072116;28;20047;-81
2023/07/30 04:21:18;;;;;;;27.77;6.22;;;;;;;;;;5072683;28;20051;-81
2023/07/30 04:23:44;;;;;;;32.55;6.68;;;;;;;;;;5074182;28;20059;-81
2023/07/30 04:26:10;;;;;;;29.77;6.70;;;;;;;;;;5069717;28;20085;-80
2023/07/30 04:28:36;;;;;;;20.65;5.85;;;;;;;;;;5072552;28;20097;-80
2023/07/30 04:31:02;;;;;;;24.45;7.05;;;;;;;;;;5090735;28;20051;-80
2023/07/30 04:33:28;;;;;;;21.67;6.55;;;;;;;;;;5055640;28;20598;-80
2023/07/30 04:35:54;;;;;;;28.75;6.72;;;;;;;;;;5088734;28;20058;-80
2023/07/30 04:38:20;;;;;;;30.42;6.80;;;;;;;;;;5088516;28;20112;-80
2023/07/30 04:40:46;;;;;;;27.08;6.43;;;;;;;;;;5071786;28;20138;-80
2023/07/30 04:43:13;;;;;;;22.63;6.90;;;;;;;;;;5070515;28;20044;-80
2023/07/30 04:45:39;;;;;;;22.58;5.95;;;;;;;;;;5093363;28;20096;-81
2023/07/30 04:48:05;;;;;;;21.63;6.13;;;;;;;;;;5058927;28;20196;-80
2023/07/30 04:50:31;;;;;;;23.15;6.20;;;;;;;;;;5094668;28;20079;-80
2023/07/30 04:52:57;;;;;;;28.88;6.75;;;;;;;;;;5095172;28;20056;-80
2023/07/30 04:55:23;;;;;;;22.55;6.75;;;;;;;;;;5057643;28;20185;-80
2023/07/30 04:57:49;;;;;;;26.10;6.75;;;;;;;;;;5063324;28;20075;-81
2023/07/30 05:00:15;;;;;;;27.35;6.07;;;;;;;;;;5105600;28;20075;-80
2023/07/30 05:02:41;;;;;;;24.35;6.88;;;;;;;;;;5101617;28;20286;-80
2023/07/30 05:05:08;;;;;;;23.85;5.93;;;;;;;;;;5075659;28;20055;-80
2023/07/30 05:07:34;;;;;;;27.90;6.38;;;;;;;;;;5067166;27;20052;-80
2023/07/30 05:10:00;;;;;;;28.15;6.95;;;;;;;;;;5085147;28;20056;-80
2023/07/30 05:12:26;;;;;;;28.25;6.43;;;;;;;;;;5067139;28;20102;-80
2023/07/30 05:14:52;;;;;;;24.48;5.82;;;;;;;;;;5067132;28;20052;-80
2023/07/30 05:17:18;;;;;;;22.65;5.55;;;;;;;;;;5084207;28;20056;-81
2023/07/30 05:19:45;;;;;;;22.48;5.45;;;;;;;;;;5067304;28;20040;-80
2023/07/30 05:22:11;;;;;;;17.83;4.45;;;;;;;;;;5064950;28;20412;-80
2023/07/30 05:24:37;;;;;;;30.60;5.50;;;;;;;;;;5085646;27;20047;-80
2023/07/30 05:27:03;;;;;;;27.27;5.85;;;;;;;;;;5067192;28;20070;-81
2023/07/30 05:29:29;;;;;;;24.67;6.72;;;;;;;;;;5063633;28;20116;-81
2023/07/30 05:31:55;;;;;;;19.88;5.80;;;;;;;;;;5084131;28;20093;-81
2023/07/30 05:34:21;;;;;;;26.70;5.53;;;;;;;;;;5086381;28;20870;-81
2023/07/30 05:36:47;;;;;;;22.67;5.28;;;;;;;;;;5084317;27;20511;-80
2023/07/30 05:39:13;;;;;;;27.52;5.53;;;;;;;;;;5063517;27;20052;-80
2023/07/30 05:41:39;;;;;;;28.80;5.82;;;;;;;;;;5048020;28;20097;-81
2023/07/30 05:44:05;;;;;;;20.63;4.63;;;;;;;;;;5063452;28;20415;-80
2023/07/30 05:46:31;;;;;;;23.38;4.78;;;;;;;;;;5066779;28;20079;-80
2023/07/30 05:48:57;;;;;;;19.45;3.83;;;;;;;;;;5067625;27;20124;-79
2023/07/30 05:51:23;;;;;;;13.43;4.43;;;;;;;;;;5085145;28;20047;-80
2023/07/30 05:53:50;;;;;;;18.05;5.30;;;;;;;;;;5061193;28;20048;-80
2023/07/30 05:56:18;;;;;;;14.65;4.20;;;;;;;;;;5082505;28;20051;-79
2023/07/30 05:58:44;;;;;;;20.85;4.35;;;;;;;;;;5068524;28;20521;-80
2023/07/30 06:01:11;;;;;;;17.83;4.20;;;;;;;;;;5067294;28;20048;-80
2023/07/30 06:03:37;;;;;;;18.92;4.10;;;;;;;;;;5067044;28;20109;-80
2023/07/30 06:06:03;;;;;;;19.05;4.82;;;;;;;;;;5062264;27;20051;-80
2023/07/30 06:08:30;;;;;;;21.23;3.55;;;;;;;;;;5065179;28;20185;-80
2023/07/30 06:10:57;;;;;;;29.88;5.18;;;;;;;;;;5063618;28;20804;-80
2023/07/30 06:13:23;;;;;;;15.30;3.50;;;;;;;;;;5063098;28;20594;-80
2023/07/30 06:15:49;;;;;;;17.08;4.20;;;;;;;;;;5064475;28;20052;-80
2023/07/30 06:18:15;;;;;;;11.15;3.00;;;;;;;;;;5063267;28;20143;-81
2023/07/30 06:20:41;;;;;;;14.45;3.33;;;;;;;;;;5065671;28;20063;-80
2023/07/30 06:23:07;;;;;;;15.80;3.70;;;;;;;;;;5066654;28;20134;-81
2023/07/30 06:25:33;;;;;;;17.50;3.75;;;;;;;;;;5068243;28;21039;-81
2023/07/30 06:27:59;;;;;;;14.23;3.63;;;;;;;;;;5083225;28;20458;-80
2023/07/30 06:30:25;;;;;;;14.82;3.65;;;;;;;;;;5080223;28;20043;-79
2023/07/30 06:32:51;;;;;;;15.70;3.50;;;;;;;;;;5047270;28;20082;-79
2023/07/30 06:35:18;;;;;;;16.33;4.50;;;;;;;;;;5063800;28;20047;-79
2023/07/30 06:37:44;;;;;;;19.08;3.67;;;;;;;;;;5059619;28;20059;-81
2023/07/30 06:40:10;;;;;;;18.90;4.07;;;;;;;;;;5064105;28;20044;-79
2023/07/30 06:42:38;;;;;;;13.25;3.20;;;;;;;;;;5062679;28;20051;-80
2023/07/30 06:45:05;;;;;;;15.15;3.80;;;;;;;;;;5081129;28;20051;-79
2023/07/30 06:47:31;;;;;;;13.95;3.97;;;;;;;;;;5064064;28;20047;-79
2023/07/30 06:49:57;;;;;;;12.88;3.40;;;;;;;;;;5062752;28;20134;-80
2023/07/30 06:52:23;;;;;;;16.27;3.30;;;;;;;;;;5081478;28;20561;-80
2023/07/30 06:54:49;;;;;;;15.20;3.67;;;;;;;;;;5072249;28;20048;-80
2023/07/30 06:57:15;;;;;;;16.65;3.70;;;;;;;;;;5086756;28;20047;-80
2023/07/30 06:59:41;;;;;;;16.60;3.78;;;;;;;;;;5090015;28;20100;-80
2023/07/30 07:02:07;;;;;;;15.65;3.53;;;;;;;;;;5092327;28;20047;-79
2023/07/30 07:04:33;;;;;;;16.85;3.63;;;;;;;;;;5073552;28;20106;-80
2023/07/30 07:07:03;;;;;;;10.32;3.58;;;;;;;;;;5073690;28;20079;-79
2023/07/30 07:09:29;;;;;;;20.63;3.97;;;;;;;;;;5093803;28;20063;-80
2023/07/30 07:11:55;;;;;;;13.73;4.03;;;;;;;;;;5071318;28;20195;-79
2023/07/30 07:14:21;;;;;;;12.38;3.70;;;;;;;;;;5050255;28;21030;-80
2023/07/30 07:16:48;;;;;;;14.13;3.33;;;;;;;;;;5071027;28;20035;-80
2023/07/30 07:19:14;;;;;;;19.83;3.85;;;;;;;;;;5068904;28;20059;-80
2023/07/30 07:21:40;;;;;;;12.57;3.63;;;;;;;;;;5071185;28;20102;-80
2023/07/30 07:24:07;;;;;;;14.15;3.67;;;;;;;;;;5072585;28;20059;-80
2023/07/30 07:26:33;;;;;;;17.85;4.22;;;;;;;;;;5068956;28;20047;-80
2023/07/30 07:28:59;;;;;;;19.15;4.22;;;;;;;;;;5065869;28;20056;-79
2023/07/30 07:31:25;;;;;;;14.23;3.40;;;;;;;;;;5086882;28;20056;-80
2023/07/30 07:33:51;;;;;;;14.93;3.28;;;;;;;;;;5071199;28;20135;-79
2023/07/30 07:36:18;;;;;;;14.02;3.55;;;;;;;;;;5064801;28;20519;-79
2023/07/30 07:38:44;;;;;;;18.23;4.35;;;;;;;;;;5068991;28;20094;-80
2023/07/30 07:41:16;;;;;;;20.23;3.95;;;;;;;;;;5087643;28;20051;-79
2023/07/30 07:43:42;;;;;;;15.02;3.67;;;;;;;;;;5086425;28;20446;-80
2023/07/30 07:46:13;;;;;;;13.90;3.20;;;;;;;;;;5094184;28;20365;-80
2023/07/30 07:48:42;;;;;;;13.82;3.53;;;;;;;;;;5084309;28;20058;-79
2023/07/30 07:51:11;;;;;;;15.18;3.60;;;;;;;;;;5078989;28;20056;-79
2023/07/30 07:53:38;;;;;;;21.67;4.72;;;;;;;;;;5076217;28;20062;-80
2023/07/30 07:56:04;;;;;;;13.70;3.28;;;;;;;;;;5069475;28;20048;-79
2023/07/30 07:58:31;;;;;;;12.27;3.03;;;;;;;;;;5087477;28;20052;-80
2023/07/30 08:00:58;;;;;;;15.45;3.22;;;;;;;;;;5091098;28;20162;-80
2023/07/30 08:03:26;;;;;;;13.60;4.03;;;;;;;;;;5089270;28;20048;-81
2023/07/30 08:05:52;;;;;;;9.23;2.55;;;;;;;;;;5090873;28;20131;-81
2023/07/30 08:08:18;;;;;;;14.07;2.78;;;;;;;;;;5089730;28;20040;-81
2023/07/30 08:10:47;;;;;;;12.13;2.42;;;;;;;;;;5070414;28;20051;-80
2023/07/30 08:13:13;;;;;;;10.93;2.45;;;;;;;;;;5071371;28;20105;-81
2023/07/30 08:15:39;;;;;;;12.35;2.38;;;;;;;;;;5073496;28;20052;-80
2023/07/30 08:18:05;;;;;;;11.27;2.15;;;;;;;;;;5070201;28;20055;-81
2023/07/30 08:20:31;;;;;;;6.10;1.92;;;;;;;;;;5071872;28;20083;-81
2023/07/30 08:22:57;;;;;;;14.07;1.80;;;;;;;;;;5075280;28;20101;-80
2023/07/30 08:25:23;;;;;;;11.90;2.75;;;;;;;;;;5071741;28;20169;-81
2023/07/30 08:27:50;;;;;;;9.48;2.17;;;;;;;;;;5071443;28;20089;-81
2023/07/30 08:30:16;;;;;;;7.28;1.85;;;;;;;;;;5070400;28;20094;-80
2023/07/30 08:32:43;;;;;;;14.98;2.50;;;;;;;;;;5089921;28;20112;-80
2023/07/30 08:35:09;;;;;;;9.18;2.00;;;;;;;;;;5067703;28;20047;-80
2023/07/30 08:37:35;;;;;;;9.45;2.10;;;;;;;;;;5090432;28;20178;-79
2023/07/30 08:40:01;;;;;;;13.13;2.50;;;;;;;;;;5090806;28;20047;-79
2023/07/30 08:42:27;;;;;;;9.27;2.58;;;;;;;;;;5074637;28;20044;-79
2023/07/30 08:44:53;;;;;;;10.70;2.45;;;;;;;;;;5075056;28;20065;-79
2023/07/30 08:47:20;;;;;;;10.52;1.73;;;;;;;;;;5074292;28;20139;-79
2023/07/30 08:49:46;;;;;;;7.50;2.53;;;;;;;;;;5093114;28;20044;-79
2023/07/30 08:52:12;;;;;;;14.38;2.53;;;;;;;;;;5072836;28;20071;-79
2023/07/30 08:54:39;;;;;;;9.93;1.92;;;;;;;;;;5074317;28;20051;-79
2023/07/30 08:57:06;;;;;;;8.57;1.95;;;;;;;;;;5092830;27;20043;-79
2023/07/30 08:59:37;;;;;;;7.47;2.17;;;;;;;;;;5066138;28;21167;-79
2023/07/30 09:02:04;;;;;;;9.23;2.25;;;;;;;;;;5092252;27;20047;-79
2023/07/30 09:04:34;;;;;;;8.25;1.80;;;;;;;;;;5088241;28;20044;-79
2023/07/30 09:07:01;;;;;;;12.57;3.08;;;;;;;;;;5066770;28;20066;-79
2023/07/30 09:09:27;;;;;;;7.65;1.77;;;;;;;;;;5063817;28;20082;-79
2023/07/30 09:11:56;;;;;;;7.78;1.85;;;;;;;;;;5088947;28;20108;-79
2023/07/30 09:14:22;;;;;;;6.53;2.08;;;;;;;;;;5085101;28;20052;-80
2023/07/30 09:16:48;;;;;;;10.55;2.60;;;;;;;;;;5069140;28;20051;-80
2023/07/30 09:19:18;;;;;;;11.50;3.25;;;;;;;;;;5066220;28;20126;-80
2023/07/30 09:21:44;;;;;;;9.00;2.13;;;;;;;;;;5085547;27;20130;-80
2023/07/30 09:24:11;;;;;;;8.82;2.00;;;;;;;;;;5086055;28;20048;-84
2023/07/30 09:26:44;;;;;;;9.05;2.42;;;;;;;;;;5061825;28;20407;-84
2023/07/30 09:29:10;;;;;;;12.05;2.75;;;;;;;;;;5070829;28;20043;-84
2023/07/30 09:31:51;;;;;;;10.30;2.03;;;;;;;;;;5072627;28;20048;-85
2023/07/30 09:34:20;;;;;;;9.80;2.17;;;;;;;;;;5071445;28;20063;-76
2023/07/30 09:36:47;;;;;;;11.82;2.30;;;;;;;;;;5052640;28;20120;-76
2023/07/30 09:39:18;;;;;;;12.27;2.30;;;;;;;;;;5066920;28;20077;-76
2023/07/30 09:41:44;;;;;;;9.27;2.05;;;;;;;;;;5070336;28;20055;-84
2023/07/30 09:44:11;;;;;;;11.23;2.22;;;;;;;;;;5073157;28;20052;-85
2023/07/30 09:46:44;;;;;;;16.98;2.85;;;;;;;;;;5069424;28;20477;-83
2023/07/30 09:49:10;;;;;;;8.57;2.17;;;;;;;;;;5071749;28;20062;-84
2023/07/30 09:51:39;;;;;;;8.60;2.25;;;;;;;;;;5088727;27;20067;-84
2023/07/30 09:54:10;;;;;;;7.90;2.08;;;;;;;;;;5069438;28;20174;-83
2023/07/30 09:56:40;;;;;;;5.30;1.70;;;;;;;;;;5069267;28;20707;-84
2023/07/30 09:59:06;;;;;;;4.22;1.27;;;;;;;;;;5071543;28;20101;-84
2023/07/30 10:01:36;;;;;;;6.50;1.65;;;;;;;;;;5090342;28;20084;-85
2023/07/30 10:04:05;;;;;;;6.18;1.83;;;;;;;;;;5059942;28;20054;-83
2023/07/30 10:06:32;;;;;;;5.35;1.38;;;;;;;;;;5067159;28;20062;-83
2023/07/30 10:08:59;;;;;;;5.30;1.35;;;;;;;;;;5071613;28;20150;-83
2023/07/30 10:11:25;;;;;;;6.38;1.55;;;;;;;;;;5070639;28;20048;-82
2023/07/30 10:13:52;;;;;;;7.68;1.42;;;;;;;;;;5065228;28;20082;-83
2023/07/30 10:16:18;;;;;;;5.47;1.38;;;;;;;;;;5082046;28;20655;-82
2023/07/30 10:18:44;;;;;;;6.32;1.58;;;;;;;;;;5087916;27;20051;-83
2023/07/30 10:21:22;;;;;;;6.05;1.70;;;;;;;;;;5070132;28;20052;-83
2023/07/30 10:23:58;;;;;;;11.55;2.67;;;;;;;;;;5086912;28;20869;-83
2023/07/30 10:26:31;;;;;;;6.57;1.63;;;;;;;;;;5069622;28;20066;-83
2023/07/30 10:29:13;;;;;;;8.40;1.63;;;;;;;;;;5066914;28;20047;-83
2023/07/30 10:31:40;;;;;;;6.78;1.80;;;;;;;;;;5065510;28;20628;-83
2023/07/30 10:34:10;;;;;;;7.45;1.90;;;;;;;;;;5068650;28;20040;-83
2023/07/30 10:36:47;;;;;;;7.38;1.73;;;;;;;;;;5067696;28;20298;-83
2023/07/30 10:39:21;;;;;;;6.75;1.98;;;;;;;;;;5054163;28;20079;-82
2023/07/30 10:41:51;;;;;;;5.28;1.38;;;;;;;;;;5071094;28;20048;-82
2023/07/30 10:44:27;;;;;;;11.18;2.20;;;;;;;;;;5084856;28;20523;-82
2023/07/30 10:46:57;;;;;;;9.40;1.70;;;;;;;;;;5080937;28;20058;-82
2023/07/30 10:49:23;;;;;;;10.23;1.63;;;;;;;;;;5080591;28;20059;-84
2023/07/30 10:51:51;;;;;;;4.72;1.40;;;;;;;;;;5079200;28;20058;-82
2023/07/30 10:54:17;;;;;;;7.63;1.88;;;;;;;;;;5100327;27;20576;-82
2023/07/30 10:56:44;;;;;;;8.02;1.70;;;;;;;;;;5099047;28;20097;-83
2023/07/30 10:59:11;;;;;;;9.25;1.80;;;;;;;;;;5087422;28;20054;-83
2023/07/30 11:01:46;;;;;;;8.05;2.15;;;;;;;;;;5099281;28;20496;-83
2023/07/30 11:04:14;;;;;;;7.82;1.63;;;;;;;;;;5067079;28;20052;-84
2023/07/30 11:06:45;;;;;;;11.27;2.08;;;;;;;;;;5103830;28;20064;-83
2023/07/30 11:09:20;;;;;;;7.15;1.65;;;;;;;;;;5082498;28;20063;-83
2023/07/30 11:11:53;;;;;;;4.82;1.80;;;;;;;;;;5101908;28;20120;-84
2023/07/30 11:14:20;;;;;;;5.35;1.88;;;;;;;;;;5080308;28;20075;-83
2023/07/30 11:16:52;;;;;;;9.05;1.95;;;;;;;;;;5082848;28;20052;-85
2023/07/30 11:19:18;;;;;;;8.70;1.90;;;;;;;;;;5087265;28;20044;-84
2023/07/30 11:21:45;;;;;;;14.05;2.55;;;;;;;;;;5086276;28;20048;-84
2023/07/30 11:24:11;;;;;;;10.65;1.90;;;;;;;;;;5067260;28;20082;-83
2023/07/30 11:26:38;;;;;;;9.30;3.00;;;;;;;;;;5083737;28;20048;-86
2023/07/30 11:29:20;;;;;;;9.77;2.10;;;;;;;;;;5085796;28;20053;-85
2023/07/30 11:31:46;;;;;;;8.75;2.22;;;;;;;;;;5086202;28;20051;-84
2023/07/30 11:34:13;;;;;;;14.02;2.50;;;;;;;;;;5063095;28;20138;-83
2023/07/30 11:36:40;;;;;;;7.38;2.10;;;;;;;;;;5078406;28;20135;-84
2023/07/30 11:39:07;;;;;;;9.23;2.40;;;;;;;;;;5077084;28;20122;-83
2023/07/30 11:41:33;;;;;;;16.52;3.28;;;;;;;;;;5075812;28;20044;-83
2023/07/30 11:43:59;;;;;;;11.10;2.47;;;;;;;;;;5075401;28;20055;-83
2023/07/30 11:46:25;;;;;;;14.15;2.72;;;;;;;;;;5078527;28;20052;-83
2023/07/30 11:48:52;;;;;;;10.10;2.30;;;;;;;;;;5077936;28;20129;-82
2023/07/30 11:51:26;;;;;;;9.90;2.03;;;;;;;;;;5081475;28;20048;-83
2023/07/30 11:53:52;;;;;;;11.57;2.63;;;;;;;;;;5084696;28;20048;-83
2023/07/30 11:56:19;;;;;;;8.73;2.15;;;;;;;;;;5081408;28;20155;-82
2023/07/30 11:58:47;;;;;;;11.13;2.22;;;;;;;;;;5085545;28;21682;-81
2023/07/30 12:01:13;;;;;;;12.70;2.85;;;;;;;;;;5081938;28;20528;-82
2023/07/30 12:03:41;;;;;;;10.82;2.00;;;;;;;;;;5080503;28;20171;-82
2023/07/30 12:06:07;;;;;;;8.65;2.55;;;;;;;;;;5082858;28;20048;-82
2023/07/30 12:08:35;;;;;;;8.18;2.15;;;;;;;;;;5081240;28;20052;-81
2023/07/30 12:11:05;;;;;;;11.68;2.13;;;;;;;;;;5080944;28;20052;-83
2023/07/30 12:13:31;;;;;;;8.18;1.90;;;;;;;;;;5082846;28;20048;-82
2023/07/30 12:15:58;;;;;;;9.40;2.30;;;;;;;;;;5085380;28;20040;-83
2023/07/30 12:18:24;;;;;;;8.30;1.70;;;;;;;;;;5066899;28;20052;-83
2023/07/30 12:20:51;;;;;;;9.23;2.22;;;;;;;;;;5082752;28;20052;-82
2023/07/30 12:23:17;;;;;;;6.95;1.58;;;;;;;;;;5098258;28;20052;-83
2023/07/30 12:25:44;;;;;;;11.45;1.80;;;;;;;;;;5084746;28;20093;-83
2023/07/30 12:28:10;;;;;;;8.80;2.22;;;;;;;;;;5079423;28;20523;-82
2023/07/30 12:30:36;;;;;;;12.93;2.13;;;;;;;;;;5068155;28;20049;-83
2023/07/30 12:33:06;;;;;;;15.55;2.25;;;;;;;;;;5085476;28;20044;-82
2023/07/30 12:35:32;;;;;;;7.10;2.13;;;;;;;;;;5085926;28;20044;-83
2023/07/30 12:37:59;;;;;;;4.80;1.52;;;;;;;;;;5085294;28;20114;-83
2023/07/30 12:40:25;;;;;;;7.15;1.77;;;;;;;;;;5085347;28;20055;-82
2023/07/30 12:42:51;;;;;;;6.50;1.50;;;;;;;;;;5087068;28;20044;-81
2023/07/30 12:45:17;;;;;;;7.03;1.40;;;;;;;;;;5068986;28;20049;-82
2023/07/30 12:47:45;;;;;;;6.95;1.55;;;;;;;;;;5084482;28;20123;-83
2023/07/30 12:50:11;;;;;;;7.82;2.05;;;;;;;;;;5084366;28;20056;-83
2023/07/30 12:52:37;;;;;;;6.10;1.55;;;;;;;;;;5078767;28;20059;-83
2023/07/30 12:55:04;;;;;;;7.85;1.42;;;;;;;;;;5088656;28;20045;-84
2023/07/30 12:57:30;;;;;;;9.55;1.48;;;;;;;;;;5071675;28;20039;-82
2023/07/30 12:59:57;;;;;;;7.43;1.77;;;;;;;;;;5085354;28;20044;-83
2023/07/30 13:02:23;;;;;;;10.10;2.33;;;;;;;;;;5085974;28;20054;-84
2023/07/30 13:04:49;;;;;;;7.38;1.58;;;;;;;;;;5085944;28;20605;-83
2023/07/30 13:07:15;;;;;;;8.95;1.42;;;;;;;;;;5091182;28;21374;-83
2023/07/30 13:09:41;;;;;;;9.48;1.90;;;;;;;;;;5082269;28;20051;-82
2023/07/30 13:12:08;;;;;;;6.57;1.83;;;;;;;;;;5110446;28;20047;-82
2023/07/30 13:14:34;;;;;;;8.13;1.52;;;;;;;;;;5087540;28;20047;-83
2023/07/30 13:17:00;;;;;;;28.33;3.50;;;;;;;;;;5092821;28;20107;-81
2023/07/30 13:19:28;;;;;;;17.67;3.38;;;;;;;;;;5114400;28;20485;-83
2023/07/30 13:21:54;;;;;;;9.43;1.65;;;;;;;;;;5067083;28;20057;-83
2023/07/30 13:24:20;;;;;;;10.35;1.70;;;;;;;;;;5076838;28;20051;-82
2023/07/30 13:26:46;;;;;;;13.43;2.13;;;;;;;;;;5090379;28;20817;-83
2023/07/30 13:29:12;;;;;;;7.40;2.40;;;;;;;;;;5095149;28;20059;-84
2023/07/30 13:31:38;;;;;;;9.65;2.13;;;;;;;;;;5108210;28;20700;-84
2023/07/30 13:34:04;;;;;;;11.07;1.75;;;;;;;;;;5089773;28;20043;-82
2023/07/30 13:36:30;;;;;;;7.47;1.50;;;;;;;;;;5060561;28;20109;-82
2023/07/30 13:38:56;;;;;;;6.55;1.85;;;;;;;;;;5089025;27;20051;-81
2023/07/30 13:41:22;;;;;;;9.75;2.60;;;;;;;;;;5053242;28;20078;-80
2023/07/30 13:43:48;;;;;;;5.28;1.30;;;;;;;;;;5099215;28;20040;-80
2023/07/30 13:46:14;;;;;;;7.20;1.25;;;;;;;;;;5084521;28;20059;-80
2023/07/30 13:48:41;;;;;;;3.85;1.00;;;;;;;;;;5082746;28;20055;-82
2023/07/30 13:51:07;;;;;;;5.50;1.27;;;;;;;;;;5102878;28;20052;-80
2023/07/30 13:53:34;;;;;;;8.10;1.45;;;;;;;;;;5084513;28;20066;-81
2023/07/30 13:56:01;;;;;;;3.75;1.10;;;;;;;;;;5105527;27;20107;-82
2023/07/30 13:58:30;;;;;;;4.40;1.10;;;;;;;;;;5105059;28;20047;-81
2023/07/30 14:00:56;;;;;;;3.03;1.10;;;;;;;;;;5085973;28;20040;-80
2023/07/30 14:03:22;;;;;;;5.88;1.70;;;;;;;;;;5103646;28;20051;-80
2023/07/30 14:05:48;;;;;;;5.90;1.60;;;;;;;;;;5081452;28;20807;-80
2023/07/30 14:08:15;;;;;;;10.10;1.67;;;;;;;;;;5067651;28;20043;-81
2023/07/30 14:10:41;;;;;;;6.07;1.42;;;;;;;;;;5078909;28;20094;-80
2023/07/30 14:13:07;;;;;;;6.30;1.30;;;;;;;;;;5073908;28;20123;-81
2023/07/30 14:15:33;;;;;;;7.22;1.30;;;;;;;;;;5080408;28;20052;-79
2023/07/30 14:17:59;;;;;;;8.63;1.75;;;;;;;;;;5062917;28;20575;-81
2023/07/30 14:20:25;;;;;;;6.55;1.13;;;;;;;;;;5089877;28;20056;-83
2023/07/30 14:22:53;;;;;;;6.30;1.52;;;;;;;;;;5108499;28;20045;-84
2023/07/30 14:25:20;;;;;;;9.65;1.67;;;;;;;;;;5092530;28;20090;-82
2023/07/30 14:27:46;;;;;;;5.53;1.27;;;;;;;;;;5091144;28;20066;-82
2023/07/30 14:30:12;;;;;;;7.85;1.35;;;;;;;;;;5083758;28;20047;-81